sensor_id;sensor_type;location;lat;lon;timestamp;P1;durP1;ratioP1;P2;durP2;ratioP2
70312;SDS011;57723;51.698;5.344;2022-12-18T00:01:04;5.72;;;2.22;;
70312;SDS011;57723;51.698;5.344;2022-12-18T00:03:34;4.07;;;1.90;;
70312;SDS011;57723;51.698;5.344;2022-12-18T00:06:00;4.65;;;1.92;;
70312;SDS011;57723;51.698;5.344;2022-12-18T00:08:26;8.00;;;1.73;;
70312;SDS011;57723;51.698;5.344;2022-12-18T00:10:51;4.53;;;2.10;;
70312;SDS011;57723;51.698;5.344;2022-12-18T00:13:16;4.20;;;1.90;;
70312;SDS011;57723;51.698;5.344;2022-12-18T00:15:41;4.10;;;1.90;;
70312;SDS011;57723;51.698;5.344;2022-12-18T00:18:06;4.77;;;2.13;;
70312;SDS011;57723;51.698;5.344;2022-12-18T00:20:36;6.53;;;2.20;;
70312;SDS011;57723;51.698;5.344;2022-12-18T00:23:02;7.32;;;2.00;;
70312;SDS011;57723;51.698;5.344;2022-12-18T00:25:27;3.42;;;1.48;;
70312;SDS011;57723;51.698;5.344;2022-12-18T00:27:52;4.80;;;2.07;;
70312;SDS011;57723;51.698;5.344;2022-12-18T00:30:18;5.80;;;1.93;;
70312;SDS011;57723;51.698;5.344;2022-12-18T00:32:43;4.50;;;2.03;;
70312;SDS011;57723;51.698;5.344;2022-12-18T00:35:09;4.50;;;2.20;;
70312;SDS011;57723;51.698;5.344;2022-12-18T00:37:34;4.47;;;1.70;;
70312;SDS011;57723;51.698;5.344;2022-12-18T00:40:00;4.03;;;1.90;;
70312;SDS011;57723;51.698;5.344;2022-12-18T00:42:25;3.50;;;1.63;;
70312;SDS011;57723;51.698;5.344;2022-12-18T00:45:12;4.28;;;1.85;;
70312;SDS011;57723;51.698;5.344;2022-12-18T00:47:39;4.43;;;2.10;;
70312;SDS011;57723;51.698;5.344;2022-12-18T00:50:04;7.28;;;1.90;;
70312;SDS011;57723;51.698;5.344;2022-12-18T00:52:30;6.13;;;1.90;;
70312;SDS011;57723;51.698;5.344;2022-12-18T00:54:55;4.20;;;1.80;;
70312;SDS011;57723;51.698;5.344;2022-12-18T00:57:20;5.37;;;2.07;;
70312;SDS011;57723;51.698;5.344;2022-12-18T00:59:45;4.97;;;1.87;;
70312;SDS011;57723;51.698;5.344;2022-12-18T01:02:11;4.47;;;2.00;;
70312;SDS011;57723;51.698;5.344;2022-12-18T01:04:37;4.78;;;1.77;;
70312;SDS011;57723;51.698;5.344;2022-12-18T01:07:02;5.13;;;1.83;;
70312;SDS011;57723;51.698;5.344;2022-12-18T01:09:27;4.50;;;1.70;;
70312;SDS011;57723;51.698;5.344;2022-12-18T01:11:52;4.50;;;1.90;;
70312;SDS011;57723;51.698;5.344;2022-12-18T01:14:18;5.90;;;1.67;;
70312;SDS011;57723;51.698;5.344;2022-12-18T01:16:43;4.20;;;2.00;;
70312;SDS011;57723;51.698;5.344;2022-12-18T01:19:08;4.53;;;1.73;;
70312;SDS011;57723;51.698;5.344;2022-12-18T01:21:33;4.17;;;1.83;;
70312;SDS011;57723;51.698;5.344;2022-12-18T01:23:58;3.83;;;1.70;;
70312;SDS011;57723;51.698;5.344;2022-12-18T01:26:24;4.23;;;1.80;;
70312;SDS011;57723;51.698;5.344;2022-12-18T01:28:49;6.85;;;1.95;;
70312;SDS011;57723;51.698;5.344;2022-12-18T01:31:25;3.93;;;1.70;;
70312;SDS011;57723;51.698;5.344;2022-12-18T01:33:52;4.05;;;1.90;;
70312;SDS011;57723;51.698;5.344;2022-12-18T01:36:21;4.70;;;1.80;;
70312;SDS011;57723;51.698;5.344;2022-12-18T01:38:47;3.25;;;1.52;;
70312;SDS011;57723;51.698;5.344;2022-12-18T01:41:13;3.63;;;1.65;;
70312;SDS011;57723;51.698;5.344;2022-12-18T01:43:47;4.25;;;1.60;;
70312;SDS011;57723;51.698;5.344;2022-12-18T01:46:12;4.20;;;1.80;;
70312;SDS011;57723;51.698;5.344;2022-12-18T01:48:38;4.70;;;1.83;;
70312;SDS011;57723;51.698;5.344;2022-12-18T01:51:04;3.63;;;1.65;;
70312;SDS011;57723;51.698;5.344;2022-12-18T01:53:29;4.10;;;1.88;;
70312;SDS011;57723;51.698;5.344;2022-12-18T01:55:55;4.50;;;1.87;;
70312;SDS011;57723;51.698;5.344;2022-12-18T01:58:29;4.22;;;1.73;;
70312;SDS011;57723;51.698;5.344;2022-12-18T02:00:55;4.32;;;1.80;;
70312;SDS011;57723;51.698;5.344;2022-12-18T02:03:20;5.40;;;2.30;;
70312;SDS011;57723;51.698;5.344;2022-12-18T02:05:47;3.57;;;1.77;;
70312;SDS011;57723;51.698;5.344;2022-12-18T02:15:40;5.35;;;2.10;;
70312;SDS011;57723;51.698;5.344;2022-12-18T02:18:30;4.97;;;1.80;;
70312;SDS011;57723;51.698;5.344;2022-12-18T02:20:59;3.65;;;1.60;;
70312;SDS011;57723;51.698;5.344;2022-12-18T02:23:39;4.22;;;1.70;;
70312;SDS011;57723;51.698;5.344;2022-12-18T02:28:36;3.88;;;1.98;;
70312;SDS011;57723;51.698;5.344;2022-12-18T02:31:04;4.00;;;1.88;;
70312;SDS011;57723;51.698;5.344;2022-12-18T02:33:30;4.00;;;1.58;;
70312;SDS011;57723;51.698;5.344;2022-12-18T02:35:57;4.88;;;1.67;;
70312;SDS011;57723;51.698;5.344;2022-12-18T02:38:23;4.95;;;1.80;;
70312;SDS011;57723;51.698;5.344;2022-12-18T02:40:49;3.80;;;1.70;;
70312;SDS011;57723;51.698;5.344;2022-12-18T02:43:15;5.22;;;2.00;;
70312;SDS011;57723;51.698;5.344;2022-12-18T02:45:51;4.73;;;1.67;;
70312;SDS011;57723;51.698;5.344;2022-12-18T02:48:22;3.58;;;1.73;;
70312;SDS011;57723;51.698;5.344;2022-12-18T02:53:23;5.72;;;1.90;;
70312;SDS011;57723;51.698;5.344;2022-12-18T02:55:52;4.13;;;1.70;;
70312;SDS011;57723;51.698;5.344;2022-12-18T02:58:30;4.40;;;1.50;;
70312;SDS011;57723;51.698;5.344;2022-12-18T03:03:27;3.75;;;1.67;;
70312;SDS011;57723;51.698;5.344;2022-12-18T03:05:56;3.17;;;1.60;;
70312;SDS011;57723;51.698;5.344;2022-12-18T03:08:33;3.72;;;1.80;;
70312;SDS011;57723;51.698;5.344;2022-12-18T03:11:04;3.53;;;1.58;;
70312;SDS011;57723;51.698;5.344;2022-12-18T03:16:05;3.55;;;1.67;;
70312;SDS011;57723;51.698;5.344;2022-12-18T03:18:46;4.45;;;1.75;;
70312;SDS011;57723;51.698;5.344;2022-12-18T03:21:14;3.20;;;1.50;;
70312;SDS011;57723;51.698;5.344;2022-12-18T03:23:42;4.28;;;1.65;;
70312;SDS011;57723;51.698;5.344;2022-12-18T03:26:10;4.50;;;1.50;;
70312;SDS011;57723;51.698;5.344;2022-12-18T03:28:42;4.40;;;1.65;;
70312;SDS011;57723;51.698;5.344;2022-12-18T03:31:09;4.50;;;1.50;;
70312;SDS011;57723;51.698;5.344;2022-12-18T03:33:38;3.03;;;1.52;;
70312;SDS011;57723;51.698;5.344;2022-12-18T03:36:04;3.90;;;1.80;;
70312;SDS011;57723;51.698;5.344;2022-12-18T03:38:30;5.35;;;1.75;;
70312;SDS011;57723;51.698;5.344;2022-12-18T03:45:53;3.70;;;1.63;;
70312;SDS011;57723;51.698;5.344;2022-12-18T03:48:21;3.30;;;1.52;;
70312;SDS011;57723;51.698;5.344;2022-12-18T03:55:50;4.90;;;1.90;;
70312;SDS011;57723;51.698;5.344;2022-12-18T03:58:17;3.97;;;1.53;;
70312;SDS011;57723;51.698;5.344;2022-12-18T04:00:43;3.65;;;1.52;;
70312;SDS011;57723;51.698;5.344;2022-12-18T04:03:09;3.15;;;1.50;;
70312;SDS011;57723;51.698;5.344;2022-12-18T04:05:35;3.90;;;1.75;;
70312;SDS011;57723;51.698;5.344;2022-12-18T04:08:01;3.20;;;1.55;;
70312;SDS011;57723;51.698;5.344;2022-12-18T04:10:27;3.90;;;1.58;;
70312;SDS011;57723;51.698;5.344;2022-12-18T04:12:55;3.40;;;1.73;;
70312;SDS011;57723;51.698;5.344;2022-12-18T04:15:20;4.00;;;1.77;;
70312;SDS011;57723;51.698;5.344;2022-12-18T04:17:49;3.07;;;1.33;;
70312;SDS011;57723;51.698;5.344;2022-12-18T04:20:14;2.73;;;1.50;;
70312;SDS011;57723;51.698;5.344;2022-12-18T04:22:40;3.00;;;1.40;;
70312;SDS011;57723;51.698;5.344;2022-12-18T04:25:05;3.83;;;1.70;;
70312;SDS011;57723;51.698;5.344;2022-12-18T04:27:30;3.13;;;1.33;;
70312;SDS011;57723;51.698;5.344;2022-12-18T04:29:55;3.27;;;1.50;;
70312;SDS011;57723;51.698;5.344;2022-12-18T04:32:21;3.17;;;1.60;;
70312;SDS011;57723;51.698;5.344;2022-12-18T04:34:46;3.85;;;1.65;;
70312;SDS011;57723;51.698;5.344;2022-12-18T04:37:11;3.83;;;1.77;;
70312;SDS011;57723;51.698;5.344;2022-12-18T04:39:36;3.43;;;1.53;;
70312;SDS011;57723;51.698;5.344;2022-12-18T04:42:02;3.40;;;1.53;;
70312;SDS011;57723;51.698;5.344;2022-12-18T04:44:27;3.20;;;1.50;;
70312;SDS011;57723;51.698;5.344;2022-12-18T04:46:52;2.77;;;1.40;;
70312;SDS011;57723;51.698;5.344;2022-12-18T04:49:18;3.23;;;1.70;;
70312;SDS011;57723;51.698;5.344;2022-12-18T04:51:43;3.30;;;1.47;;
70312;SDS011;57723;51.698;5.344;2022-12-18T04:54:08;3.75;;;1.60;;
70312;SDS011;57723;51.698;5.344;2022-12-18T04:56:34;3.10;;;1.50;;
70312;SDS011;57723;51.698;5.344;2022-12-18T04:58:59;2.47;;;1.20;;
70312;SDS011;57723;51.698;5.344;2022-12-18T05:01:24;3.33;;;1.57;;
70312;SDS011;57723;51.698;5.344;2022-12-18T05:03:50;4.20;;;1.70;;
70312;SDS011;57723;51.698;5.344;2022-12-18T05:06:16;5.43;;;1.70;;
70312;SDS011;57723;51.698;5.344;2022-12-18T05:08:41;3.50;;;1.60;;
70312;SDS011;57723;51.698;5.344;2022-12-18T05:11:11;4.07;;;1.67;;
70312;SDS011;57723;51.698;5.344;2022-12-18T05:13:39;4.78;;;1.67;;
70312;SDS011;57723;51.698;5.344;2022-12-18T05:16:06;3.58;;;1.42;;
70312;SDS011;57723;51.698;5.344;2022-12-18T05:18:32;3.50;;;1.50;;
70312;SDS011;57723;51.698;5.344;2022-12-18T05:21:13;3.35;;;1.35;;
70312;SDS011;57723;51.698;5.344;2022-12-18T05:23:44;3.47;;;1.53;;
70312;SDS011;57723;51.698;5.344;2022-12-18T05:26:09;2.63;;;1.27;;
70312;SDS011;57723;51.698;5.344;2022-12-18T05:28:38;3.42;;;1.55;;
70312;SDS011;57723;51.698;5.344;2022-12-18T05:31:04;3.07;;;1.20;;
70312;SDS011;57723;51.698;5.344;2022-12-18T05:33:30;2.58;;;1.20;;
70312;SDS011;57723;51.698;5.344;2022-12-18T05:35:57;3.00;;;1.60;;
70312;SDS011;57723;51.698;5.344;2022-12-18T05:38:30;2.80;;;1.50;;
70312;SDS011;57723;51.698;5.344;2022-12-18T05:41:00;2.97;;;1.25;;
70312;SDS011;57723;51.698;5.344;2022-12-18T05:43:28;3.25;;;1.50;;
70312;SDS011;57723;51.698;5.344;2022-12-18T05:45:54;4.88;;;1.70;;
70312;SDS011;57723;51.698;5.344;2022-12-18T05:48:22;3.95;;;1.70;;
70312;SDS011;57723;51.698;5.344;2022-12-18T05:50:48;3.77;;;1.50;;
70312;SDS011;57723;51.698;5.344;2022-12-18T05:53:14;2.27;;;1.30;;
70312;SDS011;57723;51.698;5.344;2022-12-18T05:55:40;2.67;;;1.40;;
70312;SDS011;57723;51.698;5.344;2022-12-18T05:58:06;4.03;;;1.50;;
70312;SDS011;57723;51.698;5.344;2022-12-18T06:00:35;3.03;;;1.23;;
70312;SDS011;57723;51.698;5.344;2022-12-18T06:03:01;2.40;;;1.25;;
70312;SDS011;57723;51.698;5.344;2022-12-18T06:05:26;3.33;;;1.20;;
70312;SDS011;57723;51.698;5.344;2022-12-18T06:07:52;2.65;;;1.30;;
70312;SDS011;57723;51.698;5.344;2022-12-18T06:10:17;2.97;;;1.50;;
70312;SDS011;57723;51.698;5.344;2022-12-18T06:12:42;5.90;;;1.50;;
70312;SDS011;57723;51.698;5.344;2022-12-18T06:15:07;2.73;;;1.37;;
70312;SDS011;57723;51.698;5.344;2022-12-18T06:17:33;2.80;;;1.50;;
70312;SDS011;57723;51.698;5.344;2022-12-18T06:19:58;3.00;;;1.25;;
70312;SDS011;57723;51.698;5.344;2022-12-18T06:22:23;2.72;;;1.33;;
70312;SDS011;57723;51.698;5.344;2022-12-18T06:24:49;4.07;;;1.30;;
70312;SDS011;57723;51.698;5.344;2022-12-18T06:27:14;2.83;;;1.30;;
70312;SDS011;57723;51.698;5.344;2022-12-18T06:29:40;2.27;;;1.27;;
70312;SDS011;57723;51.698;5.344;2022-12-18T06:32:05;2.67;;;1.40;;
70312;SDS011;57723;51.698;5.344;2022-12-18T06:34:30;3.23;;;1.47;;
70312;SDS011;57723;51.698;5.344;2022-12-18T06:36:56;3.97;;;1.50;;
70312;SDS011;57723;51.698;5.344;2022-12-18T06:39:21;2.90;;;1.27;;
70312;SDS011;57723;51.698;5.344;2022-12-18T06:41:46;3.33;;;1.57;;
70312;SDS011;57723;51.698;5.344;2022-12-18T06:44:11;2.63;;;1.20;;
70312;SDS011;57723;51.698;5.344;2022-12-18T06:46:36;2.73;;;1.40;;
70312;SDS011;57723;51.698;5.344;2022-12-18T06:49:02;4.30;;;1.75;;
70312;SDS011;57723;51.698;5.344;2022-12-18T06:51:28;2.93;;;1.57;;
70312;SDS011;57723;51.698;5.344;2022-12-18T06:53:53;2.67;;;1.40;;
70312;SDS011;57723;51.698;5.344;2022-12-18T06:56:18;2.53;;;1.33;;
70312;SDS011;57723;51.698;5.344;2022-12-18T06:58:43;3.67;;;1.50;;
70312;SDS011;57723;51.698;5.344;2022-12-18T07:01:10;2.80;;;1.23;;
70312;SDS011;57723;51.698;5.344;2022-12-18T07:03:35;3.00;;;1.30;;
70312;SDS011;57723;51.698;5.344;2022-12-18T07:06:01;4.20;;;1.40;;
70312;SDS011;57723;51.698;5.344;2022-12-18T07:08:26;4.00;;;1.43;;
70312;SDS011;57723;51.698;5.344;2022-12-18T07:10:53;2.30;;;1.30;;
70312;SDS011;57723;51.698;5.344;2022-12-18T07:13:19;3.65;;;1.50;;
70312;SDS011;57723;51.698;5.344;2022-12-18T07:15:44;2.90;;;1.30;;
70312;SDS011;57723;51.698;5.344;2022-12-18T07:18:10;3.83;;;1.50;;
70312;SDS011;57723;51.698;5.344;2022-12-18T07:20:35;3.33;;;1.47;;
70312;SDS011;57723;51.698;5.344;2022-12-18T07:23:03;5.20;;;1.40;;
70312;SDS011;57723;51.698;5.344;2022-12-18T07:25:30;3.03;;;1.20;;
70312;SDS011;57723;51.698;5.344;2022-12-18T07:27:55;3.63;;;1.50;;
70312;SDS011;57723;51.698;5.344;2022-12-18T07:30:20;4.07;;;1.20;;
70312;SDS011;57723;51.698;5.344;2022-12-18T07:32:45;4.63;;;1.47;;
70312;SDS011;57723;51.698;5.344;2022-12-18T07:35:11;49.58;;;46.63;;
70312;SDS011;57723;51.698;5.344;2022-12-18T07:37:36;85.37;;;80.47;;
70312;SDS011;57723;51.698;5.344;2022-12-18T07:40:01;84.77;;;80.07;;
70312;SDS011;57723;51.698;5.344;2022-12-18T07:42:27;86.80;;;81.97;;
70312;SDS011;57723;51.698;5.344;2022-12-18T07:44:55;84.97;;;79.80;;
70312;SDS011;57723;51.698;5.344;2022-12-18T07:47:20;86.03;;;80.70;;
70312;SDS011;57723;51.698;5.344;2022-12-18T07:49:45;88.13;;;83.10;;
70312;SDS011;57723;51.698;5.344;2022-12-18T07:52:11;87.47;;;82.57;;
70312;SDS011;57723;51.698;5.344;2022-12-18T07:54:37;87.22;;;82.32;;
70312;SDS011;57723;51.698;5.344;2022-12-18T07:57:02;5.33;;;3.60;;
70312;SDS011;57723;51.698;5.344;2022-12-18T07:59:28;7.43;;;2.37;;
70312;SDS011;57723;51.698;5.344;2022-12-18T08:01:53;7.73;;;2.83;;
70312;SDS011;57723;51.698;5.344;2022-12-18T08:04:18;4.17;;;2.20;;
70312;SDS011;57723;51.698;5.344;2022-12-18T08:06:43;7.10;;;2.10;;
70312;SDS011;57723;51.698;5.344;2022-12-18T08:09:09;11.90;;;1.90;;
70312;SDS011;57723;51.698;5.344;2022-12-18T08:11:35;3.70;;;1.70;;
70312;SDS011;57723;51.698;5.344;2022-12-18T08:14:00;9.47;;;1.67;;
70312;SDS011;57723;51.698;5.344;2022-12-18T08:16:25;4.67;;;1.73;;
70312;SDS011;57723;51.698;5.344;2022-12-18T08:18:51;4.30;;;1.80;;
70312;SDS011;57723;51.698;5.344;2022-12-18T08:21:21;10.23;;;1.73;;
70312;SDS011;57723;51.698;5.344;2022-12-18T08:23:54;3.13;;;1.50;;
70312;SDS011;57723;51.698;5.344;2022-12-18T08:26:20;3.80;;;1.70;;
70312;SDS011;57723;51.698;5.344;2022-12-18T08:28:46;5.33;;;1.67;;
70312;SDS011;57723;51.698;5.344;2022-12-18T08:31:14;3.78;;;1.70;;
70312;SDS011;57723;51.698;5.344;2022-12-18T08:33:40;4.47;;;1.52;;
70312;SDS011;57723;51.698;5.344;2022-12-18T08:36:06;3.23;;;1.63;;
70312;SDS011;57723;51.698;5.344;2022-12-18T08:38:32;3.45;;;1.60;;
70312;SDS011;57723;51.698;5.344;2022-12-18T08:41:01;2.90;;;1.30;;
70312;SDS011;57723;51.698;5.344;2022-12-18T08:43:27;3.10;;;1.50;;
70312;SDS011;57723;51.698;5.344;2022-12-18T08:46:11;4.32;;;1.42;;
70312;SDS011;57723;51.698;5.344;2022-12-18T08:48:36;2.38;;;1.30;;
70312;SDS011;57723;51.698;5.344;2022-12-18T08:51:04;3.00;;;1.50;;
70312;SDS011;57723;51.698;5.344;2022-12-18T08:53:37;3.33;;;1.37;;
70312;SDS011;57723;51.698;5.344;2022-12-18T08:56:06;4.50;;;1.58;;
70312;SDS011;57723;51.698;5.344;2022-12-18T08:58:34;2.88;;;1.50;;
70312;SDS011;57723;51.698;5.344;2022-12-18T09:01:03;2.70;;;1.30;;
70312;SDS011;57723;51.698;5.344;2022-12-18T09:03:29;3.00;;;1.38;;
70312;SDS011;57723;51.698;5.344;2022-12-18T09:05:54;3.97;;;1.47;;
70312;SDS011;57723;51.698;5.344;2022-12-18T09:08:20;4.10;;;1.70;;
70312;SDS011;57723;51.698;5.344;2022-12-18T09:10:47;4.60;;;1.50;;
70312;SDS011;57723;51.698;5.344;2022-12-18T09:13:14;2.87;;;1.50;;
70312;SDS011;57723;51.698;5.344;2022-12-18T09:15:45;2.85;;;1.38;;
70312;SDS011;57723;51.698;5.344;2022-12-18T09:18:16;3.15;;;1.60;;
70312;SDS011;57723;51.698;5.344;2022-12-18T09:20:49;5.40;;;1.50;;
70312;SDS011;57723;51.698;5.344;2022-12-18T09:23:16;2.70;;;1.42;;
70312;SDS011;57723;51.698;5.344;2022-12-18T09:25:42;2.83;;;1.53;;
70312;SDS011;57723;51.698;5.344;2022-12-18T09:28:11;3.30;;;1.48;;
70312;SDS011;57723;51.698;5.344;2022-12-18T09:30:38;2.47;;;1.40;;
70312;SDS011;57723;51.698;5.344;2022-12-18T09:33:06;3.60;;;1.65;;
70312;SDS011;57723;51.698;5.344;2022-12-18T09:35:39;3.72;;;1.42;;
70312;SDS011;57723;51.698;5.344;2022-12-18T09:38:06;3.45;;;1.63;;
70312;SDS011;57723;51.698;5.344;2022-12-18T09:40:36;2.95;;;1.58;;
70312;SDS011;57723;51.698;5.344;2022-12-18T09:43:22;3.42;;;1.85;;
70312;SDS011;57723;51.698;5.344;2022-12-18T09:45:51;2.78;;;1.50;;
70312;SDS011;57723;51.698;5.344;2022-12-18T09:48:25;3.97;;;1.70;;
70312;SDS011;57723;51.698;5.344;2022-12-18T09:50:54;3.15;;;1.70;;
70312;SDS011;57723;51.698;5.344;2022-12-18T09:53:24;4.60;;;1.88;;
70312;SDS011;57723;51.698;5.344;2022-12-18T09:55:51;3.38;;;1.75;;
70312;SDS011;57723;51.698;5.344;2022-12-18T10:01:10;5.00;;;1.92;;
70312;SDS011;57723;51.698;5.344;2022-12-18T10:03:36;3.50;;;1.77;;
70312;SDS011;57723;51.698;5.344;2022-12-18T10:11:03;3.03;;;1.50;;
70312;SDS011;57723;51.698;5.344;2022-12-18T10:13:42;4.82;;;1.80;;
70312;SDS011;57723;51.698;5.344;2022-12-18T10:18:55;4.63;;;1.53;;
70312;SDS011;57723;51.698;5.344;2022-12-18T10:21:26;3.20;;;1.70;;
70312;SDS011;57723;51.698;5.344;2022-12-18T10:24:09;4.10;;;1.90;;
70312;SDS011;57723;51.698;5.344;2022-12-18T10:26:38;5.20;;;1.60;;
70312;SDS011;57723;51.698;5.344;2022-12-18T10:29:08;3.10;;;1.57;;
70312;SDS011;57723;51.698;5.344;2022-12-18T10:31:35;3.15;;;1.63;;
70312;SDS011;57723;51.698;5.344;2022-12-18T10:34:00;4.10;;;1.80;;
70312;SDS011;57723;51.698;5.344;2022-12-18T10:36:25;3.73;;;1.57;;
70312;SDS011;57723;51.698;5.344;2022-12-18T10:38:51;3.50;;;1.87;;
70312;SDS011;57723;51.698;5.344;2022-12-18T10:44:36;3.50;;;1.70;;
70312;SDS011;57723;51.698;5.344;2022-12-18T10:46:36;3.40;;;1.73;;
70312;SDS011;57723;51.698;5.344;2022-12-18T10:49:01;2.93;;;1.57;;
70312;SDS011;57723;51.698;5.344;2022-12-18T10:51:30;6.57;;;1.80;;
70312;SDS011;57723;51.698;5.344;2022-12-18T10:54:02;3.58;;;1.58;;
70312;SDS011;57723;51.698;5.344;2022-12-18T10:56:28;3.58;;;1.90;;
70312;SDS011;57723;51.698;5.344;2022-12-18T11:01:26;2.78;;;1.55;;
70312;SDS011;57723;51.698;5.344;2022-12-18T11:06:21;4.67;;;1.77;;
70312;SDS011;57723;51.698;5.344;2022-12-18T11:11:26;4.18;;;1.80;;
70312;SDS011;57723;51.698;5.344;2022-12-18T11:16:18;3.57;;;1.60;;
70312;SDS011;57723;51.698;5.344;2022-12-18T11:18:43;3.90;;;1.70;;
70312;SDS011;57723;51.698;5.344;2022-12-18T11:21:09;4.90;;;1.87;;
70312;SDS011;57723;51.698;5.344;2022-12-18T11:23:36;3.53;;;1.70;;
70312;SDS011;57723;51.698;5.344;2022-12-18T11:26:03;2.97;;;1.73;;
70312;SDS011;57723;51.698;5.344;2022-12-18T11:33:38;4.70;;;1.93;;
70312;SDS011;57723;51.698;5.344;2022-12-18T11:36:04;3.88;;;1.70;;
70312;SDS011;57723;51.698;5.344;2022-12-18T11:38:34;3.20;;;1.88;;
70312;SDS011;57723;51.698;5.344;2022-12-18T11:41:09;2.90;;;1.50;;
70312;SDS011;57723;51.698;5.344;2022-12-18T11:43:38;4.30;;;1.73;;
70312;SDS011;57723;51.698;5.344;2022-12-18T11:46:07;2.97;;;1.57;;
70312;SDS011;57723;51.698;5.344;2022-12-18T11:48:36;3.80;;;1.70;;
70312;SDS011;57723;51.698;5.344;2022-12-18T11:51:04;4.03;;;1.90;;
70312;SDS011;57723;51.698;5.344;2022-12-18T11:53:30;5.00;;;1.75;;
70312;SDS011;57723;51.698;5.344;2022-12-18T11:56:18;4.77;;;1.60;;
70312;SDS011;57723;51.698;5.344;2022-12-18T12:01:51;4.10;;;1.90;;
70312;SDS011;57723;51.698;5.344;2022-12-18T12:04:31;3.83;;;1.88;;
70312;SDS011;57723;51.698;5.344;2022-12-18T12:12:11;4.35;;;1.88;;
70312;SDS011;57723;51.698;5.344;2022-12-18T12:14:57;4.13;;;1.53;;
70312;SDS011;57723;51.698;5.344;2022-12-18T12:23:02;3.50;;;1.60;;
70312;SDS011;57723;51.698;5.344;2022-12-18T12:36:17;3.15;;;1.60;;
70312;SDS011;57723;51.698;5.344;2022-12-18T12:38:50;4.60;;;1.85;;
70312;SDS011;57723;51.698;5.344;2022-12-18T12:41:17;3.10;;;1.50;;
70312;SDS011;57723;51.698;5.344;2022-12-18T12:44:03;3.45;;;1.70;;
70312;SDS011;57723;51.698;5.344;2022-12-18T12:46:31;4.03;;;1.90;;
70312;SDS011;57723;51.698;5.344;2022-12-18T12:48:58;3.25;;;1.67;;
70312;SDS011;57723;51.698;5.344;2022-12-18T12:53:57;3.33;;;1.53;;
70312;SDS011;57723;51.698;5.344;2022-12-18T12:56:24;3.38;;;1.65;;
70312;SDS011;57723;51.698;5.344;2022-12-18T12:59:10;3.33;;;1.80;;
70312;SDS011;57723;51.698;5.344;2022-12-18T13:01:40;2.92;;;1.60;;
70312;SDS011;57723;51.698;5.344;2022-12-18T13:09:00;3.70;;;1.90;;
70312;SDS011;57723;51.698;5.344;2022-12-18T13:14:22;3.63;;;1.92;;
70312;SDS011;57723;51.698;5.344;2022-12-18T13:16:48;4.00;;;1.85;;
70312;SDS011;57723;51.698;5.344;2022-12-18T13:19:23;3.13;;;1.43;;
70312;SDS011;57723;51.698;5.344;2022-12-18T13:21:55;4.35;;;2.28;;
70312;SDS011;57723;51.698;5.344;2022-12-18T13:26:46;7.40;;;3.07;;
70312;SDS011;57723;51.698;5.344;2022-12-18T13:29:11;6.83;;;3.17;;
70312;SDS011;57723;51.698;5.344;2022-12-18T13:31:57;7.70;;;3.33;;
70312;SDS011;57723;51.698;5.344;2022-12-18T13:34:29;6.93;;;3.30;;
70312;SDS011;57723;51.698;5.344;2022-12-18T13:37:42;10.68;;;3.75;;
70312;SDS011;57723;51.698;5.344;2022-12-18T13:39:41;13.23;;;3.93;;
70312;SDS011;57723;51.698;5.344;2022-12-18T13:46:58;10.03;;;4.20;;
70312;SDS011;57723;51.698;5.344;2022-12-18T13:51:55;8.85;;;4.10;;
70312;SDS011;57723;51.698;5.344;2022-12-18T13:56:47;10.07;;;3.87;;
70312;SDS011;57723;51.698;5.344;2022-12-18T14:01:42;10.00;;;4.23;;
70312;SDS011;57723;51.698;5.344;2022-12-18T14:06:49;9.23;;;4.03;;
70312;SDS011;57723;51.698;5.344;2022-12-18T14:09:15;8.38;;;3.78;;
70312;SDS011;57723;51.698;5.344;2022-12-18T14:11:46;9.50;;;3.90;;
70312;SDS011;57723;51.698;5.344;2022-12-18T14:14:13;11.00;;;3.90;;
70312;SDS011;57723;51.698;5.344;2022-12-18T14:16:38;11.20;;;4.57;;
70312;SDS011;57723;51.698;5.344;2022-12-18T14:19:08;8.20;;;4.13;;
70312;SDS011;57723;51.698;5.344;2022-12-18T14:21:35;9.27;;;3.97;;
70312;SDS011;57723;51.698;5.344;2022-12-18T14:24:06;10.43;;;3.97;;
70312;SDS011;57723;51.698;5.344;2022-12-18T14:26:37;9.43;;;4.18;;
70312;SDS011;57723;51.698;5.344;2022-12-18T14:31:44;9.85;;;3.78;;
70312;SDS011;57723;51.698;5.344;2022-12-18T14:34:15;9.33;;;4.10;;
70312;SDS011;57723;51.698;5.344;2022-12-18T14:36:41;8.07;;;3.85;;
70312;SDS011;57723;51.698;5.344;2022-12-18T14:39:16;7.57;;;3.70;;
70312;SDS011;57723;51.698;5.344;2022-12-18T14:41:42;8.93;;;4.10;;
70312;SDS011;57723;51.698;5.344;2022-12-18T14:44:07;9.43;;;4.17;;
70312;SDS011;57723;51.698;5.344;2022-12-18T14:46:37;8.00;;;3.33;;
70312;SDS011;57723;51.698;5.344;2022-12-18T14:49:23;7.53;;;3.70;;
70312;SDS011;57723;51.698;5.344;2022-12-18T14:51:59;7.43;;;3.63;;
70312;SDS011;57723;51.698;5.344;2022-12-18T14:54:24;6.10;;;3.30;;
70312;SDS011;57723;51.698;5.344;2022-12-18T14:57:36;6.50;;;3.25;;
70312;SDS011;57723;51.698;5.344;2022-12-18T14:59:36;6.57;;;3.28;;
70312;SDS011;57723;51.698;5.344;2022-12-18T15:04:36;7.32;;;3.17;;
70312;SDS011;57723;51.698;5.344;2022-12-18T15:07:20;6.45;;;3.33;;
70312;SDS011;57723;51.698;5.344;2022-12-18T15:12:34;6.65;;;3.40;;
70312;SDS011;57723;51.698;5.344;2022-12-18T15:15:01;7.65;;;3.17;;
70312;SDS011;57723;51.698;5.344;2022-12-18T15:17:26;8.70;;;3.55;;
70312;SDS011;57723;51.698;5.344;2022-12-18T15:19:53;7.72;;;3.05;;
70312;SDS011;57723;51.698;5.344;2022-12-18T15:22:20;5.63;;;3.10;;
70312;SDS011;57723;51.698;5.344;2022-12-18T15:24:46;7.57;;;3.10;;
70312;SDS011;57723;51.698;5.344;2022-12-18T15:30:00;7.07;;;3.15;;
70312;SDS011;57723;51.698;5.344;2022-12-18T15:32:25;7.43;;;3.40;;
70312;SDS011;57723;51.698;5.344;2022-12-18T15:34:50;8.70;;;3.23;;
70312;SDS011;57723;51.698;5.344;2022-12-18T15:37:16;7.50;;;3.17;;
70312;SDS011;57723;51.698;5.344;2022-12-18T15:39:41;7.43;;;3.20;;
70312;SDS011;57723;51.698;5.344;2022-12-18T15:42:08;6.83;;;3.27;;
70312;SDS011;57723;51.698;5.344;2022-12-18T15:44:52;6.15;;;3.03;;
70312;SDS011;57723;51.698;5.344;2022-12-18T15:47:17;7.47;;;3.10;;
70312;SDS011;57723;51.698;5.344;2022-12-18T15:49:42;6.37;;;2.70;;
70312;SDS011;57723;51.698;5.344;2022-12-18T15:52:08;6.17;;;2.90;;
70312;SDS011;57723;51.698;5.344;2022-12-18T15:54:35;6.90;;;3.20;;
70312;SDS011;57723;51.698;5.344;2022-12-18T15:57:21;6.07;;;3.20;;
70312;SDS011;57723;51.698;5.344;2022-12-18T15:59:50;5.67;;;3.10;;
70312;SDS011;57723;51.698;5.344;2022-12-18T16:02:17;8.18;;;3.20;;
70312;SDS011;57723;51.698;5.344;2022-12-18T16:04:43;6.45;;;3.30;;
70312;SDS011;57723;51.698;5.344;2022-12-18T16:07:08;7.10;;;3.03;;
70312;SDS011;57723;51.698;5.344;2022-12-18T16:09:34;7.65;;;3.00;;
70312;SDS011;57723;51.698;5.344;2022-12-18T16:12:00;6.93;;;3.00;;
70312;SDS011;57723;51.698;5.344;2022-12-18T16:14:26;7.33;;;3.80;;
70312;SDS011;57723;51.698;5.344;2022-12-18T16:16:52;7.18;;;3.08;;
70312;SDS011;57723;51.698;5.344;2022-12-18T16:19:18;6.00;;;3.08;;
70312;SDS011;57723;51.698;5.344;2022-12-18T16:21:43;7.73;;;2.90;;
70312;SDS011;57723;51.698;5.344;2022-12-18T16:24:12;6.30;;;3.13;;
70312;SDS011;57723;51.698;5.344;2022-12-18T16:26:38;5.95;;;3.10;;
70312;SDS011;57723;51.698;5.344;2022-12-18T16:29:03;5.63;;;2.87;;
70312;SDS011;57723;51.698;5.344;2022-12-18T16:31:28;5.23;;;3.00;;
70312;SDS011;57723;51.698;5.344;2022-12-18T16:36:38;5.95;;;3.30;;
70312;SDS011;57723;51.698;5.344;2022-12-18T16:39:03;6.73;;;2.83;;
70312;SDS011;57723;51.698;5.344;2022-12-18T16:41:28;5.83;;;2.97;;
70312;SDS011;57723;51.698;5.344;2022-12-18T16:43:56;5.90;;;2.70;;
70312;SDS011;57723;51.698;5.344;2022-12-18T16:46:21;5.33;;;2.80;;
70312;SDS011;57723;51.698;5.344;2022-12-18T16:48:47;5.60;;;2.90;;
70312;SDS011;57723;51.698;5.344;2022-12-18T16:51:12;6.37;;;3.03;;